sensor_id;sensor_type;location;lat;lon;timestamp;pressure;altitude;pressure_sealevel;temperature;humidity
19890;BME280;10107;51.198;6.824;2024-01-30T00:02:22;-21524.47;;;7.79;100.00
19890;BME280;10107;51.198;6.824;2024-01-30T00:06:24;-21524.47;;;7.79;100.00
19890;BME280;10107;51.198;6.824;2024-01-30T00:10:26;-21523.56;;;7.76;100.00
19890;BME280;10107;51.198;6.824;2024-01-30T00:14:30;-21523.03;;;7.73;100.00
19890;BME280;10107;51.198;6.824;2024-01-30T00:18:32;-21522.75;;;7.72;100.00
19890;BME280;10107;51.198;6.824;2024-01-30T00:22:34;-21522.09;;;7.70;100.00
19890;BME280;10107;51.198;6.824;2024-01-30T00:26:36;-21521.56;;;7.68;100.00
19890;BME280;10107;51.198;6.824;2024-01-30T00:30:39;-21521.03;;;7.66;100.00
19890;BME280;10107;51.198;6.824;2024-01-30T00:34:42;-21519.28;;;7.59;100.00
19890;BME280;10107;51.198;6.824;2024-01-30T00:38:44;-21519.03;;;7.58;100.00
19890;BME280;10107;51.198;6.824;2024-01-30T00:42:45;-21518.91;;;7.58;100.00
19890;BME280;10107;51.198;6.824;2024-01-30T00:46:49;-21519.03;;;7.58;100.00
19890;BME280;10107;51.198;6.824;2024-01-30T00:50:51;-21517.44;;;7.52;100.00
19890;BME280;10107;51.198;6.824;2024-01-30T00:54:53;-21516.50;;;7.48;100.00
19890;BME280;10107;51.198;6.824;2024-01-30T00:58:55;-21516.75;;;7.49;100.00
19890;BME280;10107;51.198;6.824;2024-01-30T01:02:59;-21516.09;;;7.47;100.00
19890;BME280;10107;51.198;6.824;2024-01-30T01:07:01;-21516.91;;;7.50;100.00
19890;BME280;10107;51.198;6.824;2024-01-30T01:11:04;-21515.31;;;7.44;100.00
19890;BME280;10107;51.198;6.824;2024-01-30T01:15:08;-21514.22;;;7.40;100.00
19890;BME280;10107;51.198;6.824;2024-01-30T01:19:12;-21515.16;;;7.43;100.00
19890;BME280;10107;51.198;6.824;2024-01-30T01:23:14;-21516.22;;;7.47;100.00
19890;BME280;10107;51.198;6.824;2024-01-30T01:27:16;-21514.63;;;7.41;100.00
19890;BME280;10107;51.198;6.824;2024-01-30T01:31:18;-21514.50;;;7.41;100.00
19890;BME280;10107;51.198;6.824;2024-01-30T01:35:26;-21513.31;;;7.36;100.00
19890;BME280;10107;51.198;6.824;2024-01-30T01:39:29;-21512.25;;;7.32;100.00
19890;BME280;10107;51.198;6.824;2024-01-30T01:43:31;-21511.97;;;7.31;100.00
19890;BME280;10107;51.198;6.824;2024-01-30T01:47:33;-21511.31;;;7.28;100.00
19890;BME280;10107;51.198;6.824;2024-01-30T01:51:37;-21511.31;;;7.28;100.00
19890;BME280;10107;51.198;6.824;2024-01-30T01:55:42;-21510.38;;;7.25;100.00
19890;BME280;10107;51.198;6.824;2024-01-30T01:59:44;-21509.56;;;7.22;100.00
19890;BME280;10107;51.198;6.824;2024-01-30T02:03:46;-21508.09;;;7.16;100.00
19890;BME280;10107;51.198;6.824;2024-01-30T02:07:50;-21506.50;;;7.10;100.00
19890;BME280;10107;51.198;6.824;2024-01-30T02:11:53;-21507.03;;;7.12;100.00
19890;BME280;10107;51.198;6.824;2024-01-30T02:15:56;-21506.13;;;7.08;100.00
19890;BME280;10107;51.198;6.824;2024-01-30T02:19:58;-21507.56;;;7.14;100.00
19890;BME280;10107;51.198;6.824;2024-01-30T02:24:03;-21507.31;;;7.13;100.00
19890;BME280;10107;51.198;6.824;2024-01-30T02:28:05;-21507.56;;;7.14;100.00
19890;BME280;10107;51.198;6.824;2024-01-30T02:32:07;-21508.66;;;7.18;100.00
19890;BME280;10107;51.198;6.824;2024-01-30T02:36:10;-21508.50;;;7.18;100.00
19890;BME280;10107;51.198;6.824;2024-01-30T02:40:14;-21508.25;;;7.17;100.00
19890;BME280;10107;51.198;6.824;2024-01-30T02:44:15;-21508.50;;;7.18;100.00
19890;BME280;10107;51.198;6.824;2024-01-30T02:48:17;-21508.66;;;7.18;100.00
19890;BME280;10107;51.198;6.824;2024-01-30T02:52:19;-21509.31;;;7.21;100.00
19890;BME280;10107;51.198;6.824;2024-01-30T02:56:23;-21509.03;;;7.20;100.00
19890;BME280;10107;51.198;6.824;2024-01-30T03:00:25;-21508.50;;;7.18;100.00
19890;BME280;10107;51.198;6.824;2024-01-30T03:04:27;-21509.19;;;7.20;100.00
19890;BME280;10107;51.198;6.824;2024-01-30T03:08:30;-21509.97;;;7.23;100.00
19890;BME280;10107;51.198;6.824;2024-01-30T03:12:33;-21509.72;;;7.22;100.00
19890;BME280;10107;51.198;6.824;2024-01-30T03:16:35;-21509.72;;;7.22;100.00
19890;BME280;10107;51.198;6.824;2024-01-30T03:20:37;-21510.78;;;7.26;100.00
19890;BME280;10107;51.198;6.824;2024-01-30T03:24:39;-21511.72;;;7.30;100.00
19890;BME280;10107;51.198;6.824;2024-01-30T03:28:42;-21512.09;;;7.31;100.00
19890;BME280;10107;51.198;6.824;2024-01-30T03:32:45;-21512.09;;;7.31;100.00
19890;BME280;10107;51.198;6.824;2024-01-30T03:36:47;-21511.56;;;7.29;100.00
19890;BME280;10107;51.198;6.824;2024-01-30T03:40:49;-21512.09;;;7.31;100.00
19890;BME280;10107;51.198;6.824;2024-01-30T03:44:53;-21512.09;;;7.31;100.00
19890;BME280;10107;51.198;6.824;2024-01-30T03:48:55;-21513.16;;;7.36;100.00
19890;BME280;10107;51.198;6.824;2024-01-30T03:52:57;-21512.78;;;7.34;100.00
19890;BME280;10107;51.198;6.824;2024-01-30T03:56:59;-21513.56;;;7.37;100.00
19890;BME280;10107;51.198;6.824;2024-01-30T04:01:03;-21513.56;;;7.37;100.00
19890;BME280;10107;51.198;6.824;2024-01-30T04:05:05;-21511.97;;;7.31;100.00
19890;BME280;10107;51.198;6.824;2024-01-30T04:09:07;-21512.25;;;7.32;100.00
19890;BME280;10107;51.198;6.824;2024-01-30T04:13:09;-21511.56;;;7.29;100.00
19890;BME280;10107;51.198;6.824;2024-01-30T04:17:13;-21509.56;;;7.22;100.00
19890;BME280;10107;51.198;6.824;2024-01-30T04:21:15;-21506.78;;;7.11;100.00
19890;BME280;10107;51.198;6.824;2024-01-30T04:25:17;-21505.03;;;7.04;100.00
19890;BME280;10107;51.198;6.824;2024-01-30T04:29:19;-21502.66;;;6.95;100.00
19890;BME280;10107;51.198;6.824;2024-01-30T04:33:24;-21500.78;;;6.88;100.00
19890;BME280;10107;51.198;6.824;2024-01-30T04:37:26;-21500.13;;;6.85;100.00
19890;BME280;10107;51.198;6.824;2024-01-30T04:41:28;-21499.59;;;6.83;100.00
19890;BME280;10107;51.198;6.824;2024-01-30T04:45:31;-21499.59;;;6.83;100.00
19890;BME280;10107;51.198;6.824;2024-01-30T04:49:35;-21500.78;;;6.88;100.00
19890;BME280;10107;51.198;6.824;2024-01-30T04:53:37;-21502.78;;;6.96;100.00
19890;BME280;10107;51.198;6.824;2024-01-30T04:57:40;-21503.44;;;6.98;100.00
19890;BME280;10107;51.198;6.824;2024-01-30T05:01:42;-21502.78;;;6.96;100.00
19890;BME280;10107;51.198;6.824;2024-01-30T05:05:45;-21502.78;;;6.96;100.00
19890;BME280;10107;51.198;6.824;2024-01-30T05:09:47;-21502.00;;;6.92;100.00
19890;BME280;10107;51.198;6.824;2024-01-30T05:13:49;-21502.00;;;6.92;100.00
19890;BME280;10107;51.198;6.824;2024-01-30T05:17:51;-21502.00;;;6.92;100.00
19890;BME280;10107;51.198;6.824;2024-01-30T05:21:54;-21502.00;;;6.92;100.00
19890;BME280;10107;51.198;6.824;2024-01-30T05:25:56;-21502.78;;;6.96;100.00
19890;BME280;10107;51.198;6.824;2024-01-30T05:30:01;-21503.31;;;6.98;100.00
19890;BME280;10107;51.198;6.824;2024-01-30T05:34:03;-21503.59;;;6.99;100.00
19890;BME280;10107;51.198;6.824;2024-01-30T05:38:06;-21503.97;;;7.00;100.00
19890;BME280;10107;51.198;6.824;2024-01-30T05:42:09;-21502.78;;;6.96;100.00
19890;BME280;10107;51.198;6.824;2024-01-30T05:46:11;-21501.19;;;6.89;100.00
19890;BME280;10107;51.198;6.824;2024-01-30T05:50:14;-21500.53;;;6.87;100.00
19890;BME280;10107;51.198;6.824;2024-01-30T05:54:17;-21498.91;;;6.81;100.00
19890;BME280;10107;51.198;6.824;2024-01-30T05:58:19;-21498.78;;;6.80;100.00
19890;BME280;10107;51.198;6.824;2024-01-30T06:02:22;-21498.25;;;6.78;100.00
19890;BME280;10107;51.198;6.824;2024-01-30T06:06:23;-21498.13;;;6.78;100.00
19890;BME280;10107;51.198;6.824;2024-01-30T06:10:26;-21497.47;;;6.75;100.00
19890;BME280;10107;51.198;6.824;2024-01-30T06:14:29;-21497.59;;;6.76;100.00
19890;BME280;10107;51.198;6.824;2024-01-30T06:18:31;-21497.47;;;6.75;100.00
19890;BME280;10107;51.198;6.824;2024-01-30T06:22:33;-21497.59;;;6.76;100.00
19890;BME280;10107;51.198;6.824;2024-01-30T06:26:36;-21499.31;;;6.82;100.00
19890;BME280;10107;51.198;6.824;2024-01-30T06:30:38;-21500.91;;;6.88;100.00
19890;BME280;10107;51.198;6.824;2024-01-30T06:34:40;-21500.91;;;6.88;100.00
19890;BME280;10107;51.198;6.824;2024-01-30T06:38:44;-21501.84;;;6.92;100.00
19890;BME280;10107;51.198;6.824;2024-01-30T06:42:47;-21502.38;;;6.94;100.00
19890;BME280;10107;51.198;6.824;2024-01-30T06:46:49;-21503.72;;;6.99;100.00
19890;BME280;10107;51.198;6.824;2024-01-30T06:50:53;-21503.31;;;6.98;100.00
19890;BME280;10107;51.198;6.824;2024-01-30T06:54:55;-21504.25;;;7.01;100.00
19890;BME280;10107;51.198;6.824;2024-01-30T06:58:58;-21505.19;;;7.05;100.00
19890;BME280;10107;51.198;6.824;2024-01-30T07:03:00;-21505.59;;;7.06;100.00
19890;BME280;10107;51.198;6.824;2024-01-30T07:07:02;-21506.25;;;7.09;100.00
19890;BME280;10107;51.198;6.824;2024-01-30T07:11:05;-21505.44;;;7.06;100.00
19890;BME280;10107;51.198;6.824;2024-01-30T07:15:09;-21504.13;;;7.01;100.00
19890;BME280;10107;51.198;6.824;2024-01-30T07:19:11;-21505.19;;;7.05;100.00
19890;BME280;10107;51.198;6.824;2024-01-30T07:23:13;-21507.03;;;7.12;100.00
19890;BME280;10107;51.198;6.824;2024-01-30T07:27:17;-21509.03;;;7.20;100.00
19890;BME280;10107;51.198;6.824;2024-01-30T07:31:20;-21511.97;;;7.31;100.00
19890;BME280;10107;51.198;6.824;2024-01-30T07:35:23;-21513.97;;;7.39;100.00
19890;BME280;10107;51.198;6.824;2024-01-30T07:39:25;-21515.69;;;7.45;100.00
19890;BME280;10107;51.198;6.824;2024-01-30T07:43:27;-21517.28;;;7.51;100.00
19890;BME280;10107;51.198;6.824;2024-01-30T07:47:31;-21518.75;;;7.57;100.00
19890;BME280;10107;51.198;6.824;2024-01-30T07:51:33;-21520.50;;;7.64;100.00
19890;BME280;10107;51.198;6.824;2024-01-30T07:55:35;-21521.69;;;7.68;100.00
19890;BME280;10107;51.198;6.824;2024-01-30T07:59:37;-21522.75;;;7.72;100.00
19890;BME280;10107;51.198;6.824;2024-01-30T08:03:41;-21523.03;;;7.73;100.00
19890;BME280;10107;51.198;6.824;2024-01-30T08:07:43;-21522.50;;;7.71;100.00
19890;BME280;10107;51.198;6.824;2024-01-30T08:11:46;-21523.41;;;7.75;100.00
19890;BME280;10107;51.198;6.824;2024-01-30T08:15:48;-21522.88;;;7.73;100.00
19890;BME280;10107;51.198;6.824;2024-01-30T08:19:52;-21523.94;;;7.77;100.00
19890;BME280;10107;51.198;6.824;2024-01-30T08:23:54;-21525.00;;;7.81;100.00
19890;BME280;10107;51.198;6.824;2024-01-30T08:27:56;-21526.22;;;7.86;100.00
19890;BME280;10107;51.198;6.824;2024-01-30T08:31:58;-21527.81;;;7.92;100.00
19890;BME280;10107;51.198;6.824;2024-01-30T08:36:03;-21530.72;;;8.03;100.00
19890;BME280;10107;51.198;6.824;2024-01-30T08:40:06;-21534.47;;;8.18;100.00
19890;BME280;10107;51.198;6.824;2024-01-30T08:44:09;-21538.72;;;8.34;100.00
19890;BME280;10107;51.198;6.824;2024-01-30T08:48:12;-21544.16;;;8.55;100.00
19890;BME280;10107;51.198;6.824;2024-01-30T08:52:16;-21547.75;;;8.69;100.00
19890;BME280;10107;51.198;6.824;2024-01-30T08:56:18;-21554.00;;;8.93;100.00
19890;BME280;10107;51.198;6.824;2024-01-30T09:00:20;-21561.69;;;9.23;100.00
19890;BME280;10107;51.198;6.824;2024-01-30T09:04:22;-21562.75;;;9.27;100.00
19890;BME280;10107;51.198;6.824;2024-01-30T09:08:25;-21561.97;;;9.24;100.00
19890;BME280;10107;51.198;6.824;2024-01-30T09:12:27;-21561.03;;;9.20;100.00
19890;BME280;10107;51.198;6.824;2024-01-30T09:16:29;-21561.56;;;9.22;100.00
19890;BME280;10107;51.198;6.824;2024-01-30T09:20:32;-21564.09;;;9.32;100.00
19890;BME280;10107;51.198;6.824;2024-01-30T09:24:35;-21580.13;;;9.94;100.00
19890;BME280;10107;51.198;6.824;2024-01-30T09:28:37;-21583.59;;;10.07;100.00
19890;BME280;10107;51.198;6.824;2024-01-30T09:32:40;-21588.47;;;10.26;100.00
19890;BME280;10107;51.198;6.824;2024-01-30T09:36:47;-21594.97;;;10.52;100.00
19890;BME280;10107;51.198;6.824;2024-01-30T09:40:54;-21599.22;;;10.68;100.00
19890;BME280;10107;51.198;6.824;2024-01-30T09:44:57;-21603.06;;;10.83;100.00
19890;BME280;10107;51.198;6.824;2024-01-30T09:49:02;-21596.31;;;10.57;100.00
19890;BME280;10107;51.198;6.824;2024-01-30T09:53:05;-21592.19;;;10.41;100.00
19890;BME280;10107;51.198;6.824;2024-01-30T09:57:08;-21586.09;;;10.17;100.00
19890;BME280;10107;51.198;6.824;2024-01-30T10:01:11;-21585.31;;;10.14;100.00
19890;BME280;10107;51.198;6.824;2024-01-30T10:05:15;-21590.22;;;10.33;100.00
19890;BME280;10107;51.198;6.824;2024-01-30T10:09:21;-21593.13;;;10.44;100.00
19890;BME280;10107;51.198;6.824;2024-01-30T10:13:25;-21593.00;;;10.44;100.00
19890;BME280;10107;51.198;6.824;2024-01-30T10:17:26;-21596.03;;;10.56;100.00
19890;BME280;10107;51.198;6.824;2024-01-30T10:21:29;-21600.28;;;10.72;100.00
19890;BME280;10107;51.198;6.824;2024-01-30T10:25:32;-21599.75;;;10.70;100.00
19890;BME280;10107;51.198;6.824;2024-01-30T10:29:37;-21602.13;;;10.79;100.00
19890;BME280;10107;51.198;6.824;2024-01-30T10:33:39;-21605.03;;;10.90;100.00
19890;BME280;10107;51.198;6.824;2024-01-30T10:37:43;-21601.47;;;10.77;100.00
19890;BME280;10107;51.198;6.824;2024-01-30T10:41:47;-21598.69;;;10.66;100.00
19890;BME280;10107;51.198;6.824;2024-01-30T10:45:53;-21598.56;;;10.65;100.00
19890;BME280;10107;51.198;6.824;2024-01-30T10:49:56;-21601.47;;;10.77;100.00
19890;BME280;10107;51.198;6.824;2024-01-30T10:53:58;-21605.19;;;10.91;100.00
19890;BME280;10107;51.198;6.824;2024-01-30T10:58:02;-21609.28;;;11.07;100.00
19890;BME280;10107;51.198;6.824;2024-01-30T11:02:06;-21613.78;;;11.24;100.00
19890;BME280;10107;51.198;6.824;2024-01-30T11:06:10;-21617.34;;;11.38;100.00
19890;BME280;10107;51.198;6.824;2024-01-30T11:10:14;-21618.41;;;11.42;100.00
19890;BME280;10107;51.198;6.824;2024-01-30T11:14:16;-21615.91;;;11.33;100.00
19890;BME280;10107;51.198;6.824;2024-01-30T11:18:26;-21612.06;;;11.18;100.00
19890;BME280;10107;51.198;6.824;2024-01-30T11:22:30;-21610.47;;;11.12;100.00
19890;BME280;10107;51.198;6.824;2024-01-30T11:26:32;-21611.53;;;11.16;100.00
19890;BME280;10107;51.198;6.824;2024-01-30T11:30:34;-21612.06;;;11.18;100.00
19890;BME280;10107;51.198;6.824;2024-01-30T11:34:40;-21611.13;;;11.14;100.00
19890;BME280;10107;51.198;6.824;2024-01-30T11:38:43;-21609.81;;;11.09;100.00
19890;BME280;10107;51.198;6.824;2024-01-30T11:42:47;-21609.69;;;11.08;100.00
19890;BME280;10107;51.198;6.824;2024-01-30T11:46:51;-21611.53;;;11.16;100.00
19890;BME280;10107;51.198;6.824;2024-01-30T11:50:57;-21608.75;;;11.05;100.00
19890;BME280;10107;51.198;6.824;2024-01-30T11:54:59;-21605.56;;;10.93;100.00
19890;BME280;10107;51.198;6.824;2024-01-30T11:59:01;-21603.72;;;10.85;100.00
19890;BME280;10107;51.198;6.824;2024-01-30T12:03:04;-21602.13;;;10.79;100.00
19890;BME280;10107;51.198;6.824;2024-01-30T12:07:09;-21600.69;;;10.74;100.00
19890;BME280;10107;51.198;6.824;2024-01-30T12:11:12;-21600.53;;;10.73;100.00
19890;BME280;10107;51.198;6.824;2024-01-30T12:15:15;-21600.53;;;10.73;100.00
19890;BME280;10107;51.198;6.824;2024-01-30T12:19:25;-21600.69;;;10.74;100.00
19890;BME280;10107;51.198;6.824;2024-01-30T12:23:30;-21601.88;;;10.78;100.00
19890;BME280;10107;51.198;6.824;2024-01-30T12:27:34;-21601.59;;;10.77;100.00
19890;BME280;10107;51.198;6.824;2024-01-30T12:31:36;-21601.19;;;10.76;100.00
19890;BME280;10107;51.198;6.824;2024-01-30T12:35:38;-21600.41;;;10.73;100.00
19890;BME280;10107;51.198;6.824;2024-01-30T12:39:42;-21600.53;;;10.73;100.00
19890;BME280;10107;51.198;6.824;2024-01-30T12:43:45;-21601.59;;;10.77;100.00
19890;BME280;10107;51.198;6.824;2024-01-30T12:47:48;-21603.72;;;10.85;100.00
19890;BME280;10107;51.198;6.824;2024-01-30T12:51:50;-21605.31;;;10.92;100.00
19890;BME280;10107;51.198;6.824;2024-01-30T12:55:54;-21605.72;;;10.93;100.00
19890;BME280;10107;51.198;6.824;2024-01-30T12:59:55;-21606.63;;;10.97;100.00
19890;BME280;10107;51.198;6.824;2024-01-30T13:03:58;-21607.16;;;10.99;100.00
19890;BME280;10107;51.198;6.824;2024-01-30T13:07:59;-21607.44;;;11.00;100.00
19890;BME280;10107;51.198;6.824;2024-01-30T13:12:03;-21607.69;;;11.01;100.00
19890;BME280;10107;51.198;6.824;2024-01-30T13:16:06;-21607.28;;;10.99;100.00
19890;BME280;10107;51.198;6.824;2024-01-30T13:20:09;-21606.38;;;10.96;100.00
19890;BME280;10107;51.198;6.824;2024-01-30T13:24:11;-21606.22;;;10.95;100.00
19890;BME280;10107;51.198;6.824;2024-01-30T13:28:14;-21606.38;;;10.96;100.00
19890;BME280;10107;51.198;6.824;2024-01-30T13:32:16;-21605.19;;;10.91;100.00
19890;BME280;10107;51.198;6.824;2024-01-30T13:36:18;-21604.91;;;10.90;100.00
19890;BME280;10107;51.198;6.824;2024-01-30T13:40:20;-21604.50;;;10.88;100.00
19890;BME280;10107;51.198;6.824;2024-01-30T13:44:24;-21606.63;;;10.97;100.00
19890;BME280;10107;51.198;6.824;2024-01-30T13:48:26;-21606.38;;;10.96;100.00
19890;BME280;10107;51.198;6.824;2024-01-30T13:52:28;-21606.91;;;10.98;100.00
19890;BME280;10107;51.198;6.824;2024-01-30T13:56:30;-21608.50;;;11.04;100.00
19890;BME280;10107;51.198;6.824;2024-01-30T14:00:34;-21612.44;;;11.19;100.00
19890;BME280;10107;51.198;6.824;2024-01-30T14:04:36;-21619.47;;;11.46;100.00
19890;BME280;10107;51.198;6.824;2024-01-30T14:08:39;-21620.66;;;11.51;100.00
19890;BME280;10107;51.198;6.824;2024-01-30T14:12:42;-21620.13;;;11.49;100.00
19890;BME280;10107;51.198;6.824;2024-01-30T14:16:45;-21621.72;;;11.55;100.00
19890;BME280;10107;51.198;6.824;2024-01-30T14:20:48;-21622.78;;;11.59;100.00
19890;BME280;10107;51.198;6.824;2024-01-30T14:24:50;-21621.44;;;11.54;100.00
19890;BME280;10107;51.198;6.824;2024-01-30T14:28:52;-21619.59;;;11.47;100.00
19890;BME280;10107;51.198;6.824;2024-01-30T14:32:57;-21621.06;;;11.53;100.00
19890;BME280;10107;51.198;6.824;2024-01-30T14:36:59;-21622.78;;;11.59;100.00
19890;BME280;10107;51.198;6.824;2024-01-30T14:41:01;-21621.31;;;11.54;100.00
19890;BME280;10107;51.198;6.824;2024-01-30T14:45:05;-21617.88;;;11.40;100.00
19890;BME280;10107;51.198;6.824;2024-01-30T14:49:09;-21615.75;;;11.32;100.00
19890;BME280;10107;51.198;6.824;2024-01-30T14:53:12;-21613.53;;;11.23;100.00
19890;BME280;10107;51.198;6.824;2024-01-30T14:57:14;-21612.06;;;11.18;100.00
19890;BME280;10107;51.198;6.824;2024-01-30T15:01:15;-21611.94;;;11.17;100.00
19890;BME280;10107;51.198;6.824;2024-01-30T15:05:20;-21611.41;;;11.15;100.00
19890;BME280;10107;51.198;6.824;2024-01-30T15:09:22;-21608.22;;;11.03;100.00
19890;BME280;10107;51.198;6.824;2024-01-30T15:13:24;-21606.63;;;10.97;100.00
19890;BME280;10107;51.198;6.824;2024-01-30T15:17:26;-21605.56;;;10.93;100.00
19890;BME280;10107;51.198;6.824;2024-01-30T15:21:29;-21604.00;;;10.86;100.00
19890;BME280;10107;51.198;6.824;2024-01-30T15:25:31;-21601.88;;;10.78;100.00
19890;BME280;10107;51.198;6.824;2024-01-30T15:29:33;-21599.75;;;10.70;100.00
19890;BME280;10107;51.198;6.824;2024-01-30T15:33:35;-21598.44;;;10.65;100.00
19890;BME280;10107;51.198;6.824;2024-01-30T15:37:39;-21596.97;;;10.59;100.00
19890;BME280;10107;51.198;6.824;2024-01-30T15:41:41;-21595.13;;;10.52;100.00
19890;BME280;10107;51.198;6.824;2024-01-30T15:45:43;-21594.19;;;10.48;100.00
19890;BME280;10107;51.198;6.824;2024-01-30T15:49:45;-21591.00;;;10.36;100.00
19890;BME280;10107;51.198;6.824;2024-01-30T15:53:48;-21589.41;;;10.30;100.00
19890;BME280;10107;51.198;6.824;2024-01-30T15:57:50;-21587.41;;;10.22;100.00
19890;BME280;10107;51.198;6.824;2024-01-30T16:01:52;-21586.09;;;10.17;100.00
19890;BME280;10107;51.198;6.824;2024-01-30T16:05:54;-21584.13;;;10.09;100.00
19890;BME280;10107;51.198;6.824;2024-01-30T16:09:57;-21582.00;;;10.01;100.00
19890;BME280;10107;51.198;6.824;2024-01-30T16:13:59;-21580.00;;;9.94;100.00
19890;BME280;10107;51.198;6.824;2024-01-30T16:18:01;-21578.00;;;9.86;100.00
19890;BME280;10107;51.198;6.824;2024-01-30T16:22:03;-21575.34;;;9.76;100.00
19890;BME280;10107;51.198;6.824;2024-01-30T16:26:07;-21572.84;;;9.66;100.00
19890;BME280;10107;51.198;6.824;2024-01-30T16:30:10;-21569.53;;;9.53;100.00
19890;BME280;10107;51.198;6.824;2024-01-30T16:34:12;-21566.47;;;9.41;100.00
19890;BME280;10107;51.198;6.824;2024-01-30T16:38:14;-21563.41;;;9.29;100.00
19890;BME280;10107;51.198;6.824;2024-01-30T16:42:18;-21561.56;;;9.22;100.00
19890;BME280;10107;51.198;6.824;2024-01-30T16:46:20;-21561.16;;;9.21;100.00
19890;BME280;10107;51.198;6.824;2024-01-30T16:50:22;-21559.31;;;9.14;100.00
19890;BME280;10107;51.198;6.824;2024-01-30T16:54:24;-21556.50;;;9.03;100.00
19890;BME280;10107;51.198;6.824;2024-01-30T16:58:27;-21554.91;;;8.97;100.00
19890;BME280;10107;51.198;6.824;2024-01-30T17:02:29;-21554.66;;;8.96;100.00
19890;BME280;10107;51.198;6.824;2024-01-30T17:06:31;-21553.06;;;8.89;100.00
19890;BME280;10107;51.198;6.824;2024-01-30T17:10:33;-21550.13;;;8.78;100.00
19890;BME280;10107;51.198;6.824;2024-01-30T17:14:37;-21546.94;;;8.66;100.00
19890;BME280;10107;51.198;6.824;2024-01-30T17:18:41;-21545.38;;;8.60;100.00
19890;BME280;10107;51.198;6.824;2024-01-30T17:22:43;-21547.34;;;8.67;100.00
19890;BME280;10107;51.198;6.824;2024-01-30T17:26:45;-21548.41;;;8.71;100.00
19890;BME280;10107;51.198;6.824;2024-01-30T17:30:49;-21549.59;;;8.76;100.00
19890;BME280;10107;51.198;6.824;2024-01-30T17:34:52;-21550.00;;;8.78;100.00
19890;BME280;10107;51.198;6.824;2024-01-30T17:38:54;-21548.81;;;8.73;100.00
19890;BME280;10107;51.198;6.824;2024-01-30T17:42:57;-21548.69;;;8.72;100.00
19890;BME280;10107;51.198;6.824;2024-01-30T17:47:02;-21549.59;;;8.76;100.00
19890;BME280;10107;51.198;6.824;2024-01-30T17:51:04;-21550.53;;;8.80;100.00
19890;BME280;10107;51.198;6.824;2024-01-30T17:55:08;-21550.28;;;8.79;100.00
19890;BME280;10107;51.198;6.824;2024-01-30T17:59:10;-21550.28;;;8.79;100.00
19890;BME280;10107;51.198;6.824;2024-01-30T18:03:15;-21549.34;;;8.75;100.00
19890;BME280;10107;51.198;6.824;2024-01-30T18:07:18;-21549.47;;;8.76;100.00
19890;BME280;10107;51.198;6.824;2024-01-30T18:11:21;-21548.69;;;8.72;100.00
19890;BME280;10107;51.198;6.824;2024-01-30T18:15:24;-21548.00;;;8.70;100.00
19890;BME280;10107;51.198;6.824;2024-01-30T18:19:27;-21546.69;;;8.65;100.00
19890;BME280;10107;51.198;6.824;2024-01-30T18:23:30;-21546.41;;;8.64;100.00
19890;BME280;10107;51.198;6.824;2024-01-30T18:27:32;-21544.69;;;8.57;100.00
19890;BME280;10107;51.198;6.824;2024-01-30T18:31:35;-21543.50;;;8.52;100.00
19890;BME280;10107;51.198;6.824;2024-01-30T18:35:47;-21542.56;;;8.49;100.00
19890;BME280;10107;51.198;6.824;2024-01-30T18:39:50;-21541.78;;;8.46;100.00
19890;BME280;10107;51.198;6.824;2024-01-30T18:43:54;-21539.63;;;8.38;100.00
19890;BME280;10107;51.198;6.824;2024-01-30T18:47:57;-21538.03;;;8.31;100.00
19890;BME280;10107;51.198;6.824;2024-01-30T18:52:03;-21536.84;;;8.27;100.00
19890;BME280;10107;51.198;6.824;2024-01-30T18:56:06;-21535.38;;;8.21;100.00
19890;BME280;10107;51.198;6.824;2024-01-30T19:00:09;-21535.00;;;8.20;100.00
19890;BME280;10107;51.198;6.824;2024-01-30T19:04:12;-21534.72;;;8.19;100.00
19890;BME280;10107;51.198;6.824;2024-01-30T19:08:16;-21533.78;;;8.15;100.00
19890;BME280;10107;51.198;6.824;2024-01-30T19:12:19;-21533.25;;;8.13;100.00
19890;BME280;10107;51.198;6.824;2024-01-30T19:16:21;-21532.59;;;8.10;100.00
19890;BME280;10107;51.198;6.824;2024-01-30T19:20:24;-21531.66;;;8.07;100.00
19890;BME280;10107;51.198;6.824;2024-01-30T19:24:28;-21531.41;;;8.06;100.00
19890;BME280;10107;51.198;6.824;2024-01-30T19:28:30;-21530.59;;;8.03;100.00
19890;BME280;10107;51.198;6.824;2024-01-30T19:32:31;-21530.88;;;8.04;100.00
19890;BME280;10107;51.198;6.824;2024-01-30T19:36:33;-21530.47;;;8.02;100.00
19890;BME280;10107;51.198;6.824;2024-01-30T19:40:38;-21530.47;;;8.02;100.00
19890;BME280;10107;51.198;6.824;2024-01-30T19:44:40;-21529.41;;;7.98;100.00
19890;BME280;10107;51.198;6.824;2024-01-30T19:48:42;-21528.88;;;7.96;100.00
19890;BME280;10107;51.198;6.824;2024-01-30T19:52:44;-21528.88;;;7.96;100.00
19890;BME280;10107;51.198;6.824;2024-01-30T19:56:49;-21527.41;;;7.90;100.00
19890;BME280;10107;51.198;6.824;2024-01-30T20:00:51;-21526.59;;;7.87;100.00
19890;BME280;10107;51.198;6.824;2024-01-30T20:04:52;-21525.94;;;7.85;100.00
19890;BME280;10107;51.198;6.824;2024-01-30T20:08:54;-21525.16;;;7.82;100.00
19890;BME280;10107;51.198;6.824;2024-01-30T20:12:58;-21523.28;;;7.74;100.00
19890;BME280;10107;51.198;6.824;2024-01-30T20:17:00;-21522.63;;;7.72;100.00
19890;BME280;10107;51.198;6.824;2024-01-30T20:21:02;-21521.97;;;7.69;100.00
19890;BME280;10107;51.198;6.824;2024-01-30T20:25:05;-21521.69;;;7.68;100.00
19890;BME280;10107;51.198;6.824;2024-01-30T20:29:09;-21520.88;;;7.65;100.00
19890;BME280;10107;51.198;6.824;2024-01-30T20:33:11;-21520.09;;;7.62;100.00
19890;BME280;10107;51.198;6.824;2024-01-30T20:37:14;-21519.28;;;7.59;100.00
19890;BME280;10107;51.198;6.824;2024-01-30T20:41:16;-21518.63;;;7.57;100.00
19890;BME280;10107;51.198;6.824;2024-01-30T20:45:20;-21518.09;;;7.54;100.00
19890;BME280;10107;51.198;6.824;2024-01-30T20:49:23;-21517.97;;;7.54;100.00
19890;BME280;10107;51.198;6.824;2024-01-30T20:53:25;-21517.28;;;7.51;100.00
19890;BME280;10107;51.198;6.824;2024-01-30T20:57:27;-21516.38;;;7.48;100.00
19890;BME280;10107;51.198;6.824;2024-01-30T21:01:30;-21515.69;;;7.45;100.00
19890;BME280;10107;51.198;6.824;2024-01-30T21:05:32;-21515.16;;;7.43;100.00